sensor_id;sensor_type;location;lat;lon;timestamp;temperature;humidity
1175;DHT22;576;48.418;10.074;2022-12-11T00:01:07;17.50;62.50
1175;DHT22;576;48.418;10.074;2022-12-11T00:03:36;17.50;62.50
1175;DHT22;576;48.418;10.074;2022-12-11T00:06:06;17.50;62.50
1175;DHT22;576;48.418;10.074;2022-12-11T00:08:34;17.50;62.50
1175;DHT22;576;48.418;10.074;2022-12-11T00:11:02;17.50;62.50
1175;DHT22;576;48.418;10.074;2022-12-11T00:13:31;17.50;62.50
1175;DHT22;576;48.418;10.074;2022-12-11T00:16:01;17.50;62.50
1175;DHT22;576;48.418;10.074;2022-12-11T00:18:29;17.50;62.60
1175;DHT22;576;48.418;10.074;2022-12-11T00:20:59;17.50;62.50
1175;DHT22;576;48.418;10.074;2022-12-11T00:23:28;17.50;62.60
1175;DHT22;576;48.418;10.074;2022-12-11T00:25:57;17.50;62.50
1175;DHT22;576;48.418;10.074;2022-12-11T00:28:25;17.50;62.60
1175;DHT22;576;48.418;10.074;2022-12-11T00:30:53;17.50;62.50
1175;DHT22;576;48.418;10.074;2022-12-11T00:33:25;17.50;62.60
1175;DHT22;576;48.418;10.074;2022-12-11T00:35:53;17.50;62.50
1175;DHT22;576;48.418;10.074;2022-12-11T00:38:22;17.50;62.60
1175;DHT22;576;48.418;10.074;2022-12-11T00:40:50;17.50;62.60
1175;DHT22;576;48.418;10.074;2022-12-11T00:43:18;17.50;62.60
1175;DHT22;576;48.418;10.074;2022-12-11T00:45:46;17.50;62.60
1175;DHT22;576;48.418;10.074;2022-12-11T00:48:15;17.50;62.50
1175;DHT22;576;48.418;10.074;2022-12-11T00:50:44;17.50;62.60
1175;DHT22;576;48.418;10.074;2022-12-11T00:53:13;17.50;62.60
1175;DHT22;576;48.418;10.074;2022-12-11T00:55:42;17.50;62.60
1175;DHT22;576;48.418;10.074;2022-12-11T00:58:10;17.50;62.60
1175;DHT22;576;48.418;10.074;2022-12-11T01:00:39;17.50;62.60
1175;DHT22;576;48.418;10.074;2022-12-11T01:03:09;17.50;62.50
1175;DHT22;576;48.418;10.074;2022-12-11T01:05:37;17.50;62.50
1175;DHT22;576;48.418;10.074;2022-12-11T01:08:06;17.50;62.50
1175;DHT22;576;48.418;10.074;2022-12-11T01:10:35;17.50;62.50
1175;DHT22;576;48.418;10.074;2022-12-11T01:13:04;17.50;62.50
1175;DHT22;576;48.418;10.074;2022-12-11T01:15:37;17.50;62.50
1175;DHT22;576;48.418;10.074;2022-12-11T01:18:08;17.50;62.50
1175;DHT22;576;48.418;10.074;2022-12-11T01:20:37;17.50;62.50
1175;DHT22;576;48.418;10.074;2022-12-11T01:23:08;17.50;62.50
1175;DHT22;576;48.418;10.074;2022-12-11T01:25:37;17.50;62.50
1175;DHT22;576;48.418;10.074;2022-12-11T01:28:05;17.50;62.50
1175;DHT22;576;48.418;10.074;2022-12-11T01:30:33;17.50;62.50
1175;DHT22;576;48.418;10.074;2022-12-11T01:33:01;17.50;62.40
1175;DHT22;576;48.418;10.074;2022-12-11T01:35:30;17.50;62.40
1175;DHT22;576;48.418;10.074;2022-12-11T01:37:58;17.50;62.50
1175;DHT22;576;48.418;10.074;2022-12-11T01:40:28;17.50;62.50
1175;DHT22;576;48.418;10.074;2022-12-11T01:42:56;17.50;62.40
1175;DHT22;576;48.418;10.074;2022-12-11T01:45:41;17.50;62.50
1175;DHT22;576;48.418;10.074;2022-12-11T01:48:13;17.50;62.50
1175;DHT22;576;48.418;10.074;2022-12-11T01:50:45;17.50;62.50
1175;DHT22;576;48.418;10.074;2022-12-11T01:53:18;17.50;62.50
1175;DHT22;576;48.418;10.074;2022-12-11T01:55:50;17.50;62.50
1175;DHT22;576;48.418;10.074;2022-12-11T01:58:22;17.50;62.50
1175;DHT22;576;48.418;10.074;2022-12-11T02:00:51;17.50;62.50
1175;DHT22;576;48.418;10.074;2022-12-11T02:03:20;17.50;62.50
1175;DHT22;576;48.418;10.074;2022-12-11T02:05:49;17.50;62.50
1175;DHT22;576;48.418;10.074;2022-12-11T02:08:17;17.50;62.50
1175;DHT22;576;48.418;10.074;2022-12-11T02:11:05;17.50;62.50
1175;DHT22;576;48.418;10.074;2022-12-11T02:13:40;17.50;62.60
1175;DHT22;576;48.418;10.074;2022-12-11T02:16:17;17.50;62.60
1175;DHT22;576;48.418;10.074;2022-12-11T02:18:49;17.50;62.60
1175;DHT22;576;48.418;10.074;2022-12-11T02:21:23;17.50;62.60
1175;DHT22;576;48.418;10.074;2022-12-11T02:24:06;17.50;62.60
1175;DHT22;576;48.418;10.074;2022-12-11T02:27:16;17.50;62.60
1175;DHT22;576;48.418;10.074;2022-12-11T02:29:52;17.50;62.60
1175;DHT22;576;48.418;10.074;2022-12-11T02:32:26;17.40;62.60
1175;DHT22;576;48.418;10.074;2022-12-11T02:34:58;17.50;62.60
1175;DHT22;576;48.418;10.074;2022-12-11T02:37:31;17.40;62.60
1175;DHT22;576;48.418;10.074;2022-12-11T02:40:04;17.40;62.60
1175;DHT22;576;48.418;10.074;2022-12-11T02:42:35;17.40;62.60
1175;DHT22;576;48.418;10.074;2022-12-11T02:45:07;17.40;62.60
1175;DHT22;576;48.418;10.074;2022-12-11T02:47:37;17.40;62.60
1175;DHT22;576;48.418;10.074;2022-12-11T02:50:08;17.40;62.60
1175;DHT22;576;48.418;10.074;2022-12-11T02:52:38;17.40;62.60
1175;DHT22;576;48.418;10.074;2022-12-11T02:55:09;17.40;62.50
1175;DHT22;576;48.418;10.074;2022-12-11T02:57:42;17.40;62.50
1175;DHT22;576;48.418;10.074;2022-12-11T03:00:14;17.40;62.50
1175;DHT22;576;48.418;10.074;2022-12-11T03:02:44;17.40;62.50
1175;DHT22;576;48.418;10.074;2022-12-11T03:05:13;17.40;62.50
1175;DHT22;576;48.418;10.074;2022-12-11T03:07:43;17.40;62.50
1175;DHT22;576;48.418;10.074;2022-12-11T03:10:13;17.40;62.50
1175;DHT22;576;48.418;10.074;2022-12-11T03:12:44;17.40;62.50
1175;DHT22;576;48.418;10.074;2022-12-11T03:15:22;17.40;62.50
1175;DHT22;576;48.418;10.074;2022-12-11T03:18:02;17.40;62.50
1175;DHT22;576;48.418;10.074;2022-12-11T03:20:35;17.40;62.50
1175;DHT22;576;48.418;10.074;2022-12-11T03:23:11;17.40;62.50
1175;DHT22;576;48.418;10.074;2022-12-11T03:25:49;17.40;62.50
1175;DHT22;576;48.418;10.074;2022-12-11T03:28:22;17.40;62.50
1175;DHT22;576;48.418;10.074;2022-12-11T03:30:55;17.40;62.40
1175;DHT22;576;48.418;10.074;2022-12-11T03:33:26;17.40;62.50
1175;DHT22;576;48.418;10.074;2022-12-11T03:36:02;17.40;62.40
1175;DHT22;576;48.418;10.074;2022-12-11T03:38:35;17.40;62.40
1175;DHT22;576;48.418;10.074;2022-12-11T03:41:05;17.40;62.50
1175;DHT22;576;48.418;10.074;2022-12-11T03:43:36;17.40;62.50
1175;DHT22;576;48.418;10.074;2022-12-11T03:46:07;17.40;62.50
1175;DHT22;576;48.418;10.074;2022-12-11T03:48:39;17.40;62.50
1175;DHT22;576;48.418;10.074;2022-12-11T03:51:09;17.40;62.50
1175;DHT22;576;48.418;10.074;2022-12-11T03:53:37;17.40;62.50
1175;DHT22;576;48.418;10.074;2022-12-11T03:56:07;17.40;62.50
1175;DHT22;576;48.418;10.074;2022-12-11T03:58:37;17.40;62.50
1175;DHT22;576;48.418;10.074;2022-12-11T04:01:09;17.40;62.50
1175;DHT22;576;48.418;10.074;2022-12-11T04:03:38;17.40;62.50
1175;DHT22;576;48.418;10.074;2022-12-11T04:06:06;17.40;62.50
1175;DHT22;576;48.418;10.074;2022-12-11T04:08:34;17.40;62.50
1175;DHT22;576;48.418;10.074;2022-12-11T04:11:03;17.40;62.50
1175;DHT22;576;48.418;10.074;2022-12-11T04:13:49;17.40;62.50
1175;DHT22;576;48.418;10.074;2022-12-11T04:16:39;17.30;62.50
1175;DHT22;576;48.418;10.074;2022-12-11T04:19:07;17.30;62.50
1175;DHT22;576;48.418;10.074;2022-12-11T04:21:54;17.30;62.50
1175;DHT22;576;48.418;10.074;2022-12-11T04:24:39;17.30;62.50
1175;DHT22;576;48.418;10.074;2022-12-11T04:27:07;17.30;62.50
1175;DHT22;576;48.418;10.074;2022-12-11T04:29:35;17.30;62.50
1175;DHT22;576;48.418;10.074;2022-12-11T04:32:05;17.30;62.50
1175;DHT22;576;48.418;10.074;2022-12-11T04:34:33;17.30;62.50
1175;DHT22;576;48.418;10.074;2022-12-11T04:37:01;17.30;62.50
1175;DHT22;576;48.418;10.074;2022-12-11T04:39:30;17.30;62.50
1175;DHT22;576;48.418;10.074;2022-12-11T04:41:58;17.30;62.50
1175;DHT22;576;48.418;10.074;2022-12-11T04:44:26;17.30;62.50
1175;DHT22;576;48.418;10.074;2022-12-11T04:46:54;17.30;62.50
1175;DHT22;576;48.418;10.074;2022-12-11T04:49:24;17.30;62.40
1175;DHT22;576;48.418;10.074;2022-12-11T04:51:52;17.30;62.50
1175;DHT22;576;48.418;10.074;2022-12-11T04:54:20;17.30;62.40
1175;DHT22;576;48.418;10.074;2022-12-11T04:56:48;17.30;62.40
1175;DHT22;576;48.418;10.074;2022-12-11T04:59:16;17.30;62.40
1175;DHT22;576;48.418;10.074;2022-12-11T05:01:45;17.30;62.40
1175;DHT22;576;48.418;10.074;2022-12-11T05:04:13;17.30;62.40
1175;DHT22;576;48.418;10.074;2022-12-11T05:06:43;17.30;62.50
1175;DHT22;576;48.418;10.074;2022-12-11T05:09:11;17.30;62.50
1175;DHT22;576;48.418;10.074;2022-12-11T05:11:40;17.30;62.50
1175;DHT22;576;48.418;10.074;2022-12-11T05:14:08;17.30;62.50
1175;DHT22;576;48.418;10.074;2022-12-11T05:16:36;17.30;62.50
1175;DHT22;576;48.418;10.074;2022-12-11T05:19:05;17.30;62.50
1175;DHT22;576;48.418;10.074;2022-12-11T05:21:33;17.30;62.50
1175;DHT22;576;48.418;10.074;2022-12-11T05:24:03;17.30;62.50
1175;DHT22;576;48.418;10.074;2022-12-11T05:26:31;17.30;62.50
1175;DHT22;576;48.418;10.074;2022-12-11T05:28:59;17.20;62.50
1175;DHT22;576;48.418;10.074;2022-12-11T05:31:27;17.20;62.50
1175;DHT22;576;48.418;10.074;2022-12-11T05:33:56;17.20;62.60
1175;DHT22;576;48.418;10.074;2022-12-11T05:36:25;17.20;62.50
1175;DHT22;576;48.418;10.074;2022-12-11T05:38:54;17.20;62.50
1175;DHT22;576;48.418;10.074;2022-12-11T05:41:25;17.20;62.70
1175;DHT22;576;48.418;10.074;2022-12-11T05:43:54;17.20;62.70
1175;DHT22;576;48.418;10.074;2022-12-11T05:46:24;17.20;62.60
1175;DHT22;576;48.418;10.074;2022-12-11T05:48:54;17.20;62.70
1175;DHT22;576;48.418;10.074;2022-12-11T05:51:23;17.20;62.70
1175;DHT22;576;48.418;10.074;2022-12-11T05:53:52;17.20;62.70
1175;DHT22;576;48.418;10.074;2022-12-11T05:56:22;17.20;62.70
1175;DHT22;576;48.418;10.074;2022-12-11T05:58:54;17.20;62.70
1175;DHT22;576;48.418;10.074;2022-12-11T06:01:24;17.20;62.70
1175;DHT22;576;48.418;10.074;2022-12-11T06:03:52;17.20;62.70
1175;DHT22;576;48.418;10.074;2022-12-11T06:06:21;17.20;62.70
1175;DHT22;576;48.418;10.074;2022-12-11T06:08:50;17.20;62.70
1175;DHT22;576;48.418;10.074;2022-12-11T06:11:18;17.20;62.70
1175;DHT22;576;48.418;10.074;2022-12-11T06:13:50;17.20;62.70
1175;DHT22;576;48.418;10.074;2022-12-11T06:16:20;17.20;62.70
1175;DHT22;576;48.418;10.074;2022-12-11T06:18:52;17.20;62.70
1175;DHT22;576;48.418;10.074;2022-12-11T06:21:25;17.20;62.70
1175;DHT22;576;48.418;10.074;2022-12-11T06:23:55;17.10;62.70
1175;DHT22;576;48.418;10.074;2022-12-11T06:26:24;17.20;62.70
1175;DHT22;576;48.418;10.074;2022-12-11T06:28:53;17.10;62.70
1175;DHT22;576;48.418;10.074;2022-12-11T06:31:22;17.10;62.70
1175;DHT22;576;48.418;10.074;2022-12-11T06:33:51;17.10;62.70
1175;DHT22;576;48.418;10.074;2022-12-11T06:36:21;17.10;62.70
1175;DHT22;576;48.418;10.074;2022-12-11T06:38:51;17.10;62.70
1175;DHT22;576;48.418;10.074;2022-12-11T06:41:19;17.10;62.70
1175;DHT22;576;48.418;10.074;2022-12-11T06:43:47;17.10;62.70
1175;DHT22;576;48.418;10.074;2022-12-11T06:46:17;17.10;62.70
1175;DHT22;576;48.418;10.074;2022-12-11T06:48:48;17.10;62.70
1175;DHT22;576;48.418;10.074;2022-12-11T06:51:18;17.10;62.70
1175;DHT22;576;48.418;10.074;2022-12-11T06:53:50;17.10;62.70
1175;DHT22;576;48.418;10.074;2022-12-11T06:56:19;17.10;62.70
1175;DHT22;576;48.418;10.074;2022-12-11T06:58:47;17.10;62.70
1175;DHT22;576;48.418;10.074;2022-12-11T07:01:18;17.10;62.70
1175;DHT22;576;48.418;10.074;2022-12-11T07:03:48;17.10;62.70
1175;DHT22;576;48.418;10.074;2022-12-11T07:06:19;17.10;62.70
1175;DHT22;576;48.418;10.074;2022-12-11T07:08:47;17.10;62.70
1175;DHT22;576;48.418;10.074;2022-12-11T07:11:16;17.10;62.70
1175;DHT22;576;48.418;10.074;2022-12-11T07:13:45;17.10;62.80
1175;DHT22;576;48.418;10.074;2022-12-11T07:16:14;17.10;62.80
1175;DHT22;576;48.418;10.074;2022-12-11T07:18:46;17.00;62.80
1175;DHT22;576;48.418;10.074;2022-12-11T07:21:17;17.10;62.80
1175;DHT22;576;48.418;10.074;2022-12-11T07:23:46;17.10;62.80
1175;DHT22;576;48.418;10.074;2022-12-11T07:26:16;17.10;62.80
1175;DHT22;576;48.418;10.074;2022-12-11T07:28:45;17.10;62.70
1175;DHT22;576;48.418;10.074;2022-12-11T07:31:14;17.10;62.70
1175;DHT22;576;48.418;10.074;2022-12-11T07:33:43;17.10;62.70
1175;DHT22;576;48.418;10.074;2022-12-11T07:36:13;17.10;62.70
1175;DHT22;576;48.418;10.074;2022-12-11T07:38:43;17.10;62.70
1175;DHT22;576;48.418;10.074;2022-12-11T07:41:12;17.10;62.70
1175;DHT22;576;48.418;10.074;2022-12-11T07:43:41;17.10;62.70
1175;DHT22;576;48.418;10.074;2022-12-11T07:46:12;17.10;62.70
1175;DHT22;576;48.418;10.074;2022-12-11T07:48:44;17.10;62.70
1175;DHT22;576;48.418;10.074;2022-12-11T07:51:14;17.10;62.70
1175;DHT22;576;48.418;10.074;2022-12-11T07:53:45;17.10;62.70
1175;DHT22;576;48.418;10.074;2022-12-11T07:56:14;17.10;62.70
1175;DHT22;576;48.418;10.074;2022-12-11T07:58:43;17.10;62.60
1175;DHT22;576;48.418;10.074;2022-12-11T08:01:14;17.10;62.60
1175;DHT22;576;48.418;10.074;2022-12-11T08:03:43;17.10;62.60
1175;DHT22;576;48.418;10.074;2022-12-11T08:06:11;17.10;62.60
1175;DHT22;576;48.418;10.074;2022-12-11T08:08:40;17.10;62.60
1175;DHT22;576;48.418;10.074;2022-12-11T08:11:12;17.10;62.60
1175;DHT22;576;48.418;10.074;2022-12-11T08:13:41;17.10;62.60
1175;DHT22;576;48.418;10.074;2022-12-11T08:16:12;17.10;62.60
1175;DHT22;576;48.418;10.074;2022-12-11T08:18:41;17.10;62.50
1175;DHT22;576;48.418;10.074;2022-12-11T08:21:12;17.10;62.60
1175;DHT22;576;48.418;10.074;2022-12-11T08:23:40;17.10;62.60
1175;DHT22;576;48.418;10.074;2022-12-11T08:26:12;17.10;62.50
1175;DHT22;576;48.418;10.074;2022-12-11T08:28:41;17.10;62.50
1175;DHT22;576;48.418;10.074;2022-12-11T08:31:11;17.10;62.60
1175;DHT22;576;48.418;10.074;2022-12-11T08:33:41;17.10;62.60
1175;DHT22;576;48.418;10.074;2022-12-11T08:36:12;17.10;62.60
1175;DHT22;576;48.418;10.074;2022-12-11T08:38:41;17.10;62.60
1175;DHT22;576;48.418;10.074;2022-12-11T08:41:12;17.10;62.60
1175;DHT22;576;48.418;10.074;2022-12-11T08:43:41;17.10;62.60
1175;DHT22;576;48.418;10.074;2022-12-11T08:46:10;17.10;62.60
1175;DHT22;576;48.418;10.074;2022-12-11T08:48:40;17.10;62.60
1175;DHT22;576;48.418;10.074;2022-12-11T08:51:12;17.10;62.60
1175;DHT22;576;48.418;10.074;2022-12-11T08:53:40;17.10;62.60
1175;DHT22;576;48.418;10.074;2022-12-11T08:56:12;17.20;62.60
1175;DHT22;576;48.418;10.074;2022-12-11T08:58:40;17.20;62.50
1175;DHT22;576;48.418;10.074;2022-12-11T09:01:10;17.20;62.60
1175;DHT22;576;48.418;10.074;2022-12-11T09:03:40;17.10;62.60
1175;DHT22;576;48.418;10.074;2022-12-11T09:06:10;17.20;62.60
1175;DHT22;576;48.418;10.074;2022-12-11T09:08:39;17.20;62.60
1175;DHT22;576;48.418;10.074;2022-12-11T09:11:17;17.20;62.70
1175;DHT22;576;48.418;10.074;2022-12-11T09:13:46;17.20;62.70
1175;DHT22;576;48.418;10.074;2022-12-11T09:16:16;17.20;62.70
1175;DHT22;576;48.418;10.074;2022-12-11T09:18:46;17.20;62.70
1175;DHT22;576;48.418;10.074;2022-12-11T09:21:16;17.20;62.70
1175;DHT22;576;48.418;10.074;2022-12-11T09:23:45;17.20;62.80
1175;DHT22;576;48.418;10.074;2022-12-11T09:26:17;17.20;62.70
1175;DHT22;576;48.418;10.074;2022-12-11T09:28:46;17.20;62.80
1175;DHT22;576;48.418;10.074;2022-12-11T09:31:18;17.20;62.80
1175;DHT22;576;48.418;10.074;2022-12-11T09:33:49;17.20;62.80
1175;DHT22;576;48.418;10.074;2022-12-11T09:36:18;17.30;63.10
1175;DHT22;576;48.418;10.074;2022-12-11T09:38:46;17.30;63.00
1175;DHT22;576;48.418;10.074;2022-12-11T09:41:30;17.40;62.90
1175;DHT22;576;48.418;10.074;2022-12-11T09:44:06;17.50;62.90
1175;DHT22;576;48.418;10.074;2022-12-11T09:46:35;17.60;62.70
1175;DHT22;576;48.418;10.074;2022-12-11T09:49:13;17.70;62.60
1175;DHT22;576;48.418;10.074;2022-12-11T09:51:46;17.80;62.40
1175;DHT22;576;48.418;10.074;2022-12-11T09:54:16;17.90;62.30
1175;DHT22;576;48.418;10.074;2022-12-11T09:56:53;18.00;62.00
1175;DHT22;576;48.418;10.074;2022-12-11T09:59:26;18.00;61.90
1175;DHT22;576;48.418;10.074;2022-12-11T10:02:03;18.10;61.70
1175;DHT22;576;48.418;10.074;2022-12-11T10:04:48;18.10;61.70
1175;DHT22;576;48.418;10.074;2022-12-11T10:07:21;18.20;61.50
1175;DHT22;576;48.418;10.074;2022-12-11T10:09:57;18.20;61.50
1175;DHT22;576;48.418;10.074;2022-12-11T10:12:36;18.20;61.40
1175;DHT22;576;48.418;10.074;2022-12-11T10:15:28;18.20;61.30
1175;DHT22;576;48.418;10.074;2022-12-11T10:17:59;18.30;61.20
1175;DHT22;576;48.418;10.074;2022-12-11T10:20:33;18.30;61.10
1175;DHT22;576;48.418;10.074;2022-12-11T10:23:06;18.30;61.10
1175;DHT22;576;48.418;10.074;2022-12-11T10:25:36;18.40;60.90
1175;DHT22;576;48.418;10.074;2022-12-11T10:28:12;18.50;60.80
1175;DHT22;576;48.418;10.074;2022-12-11T10:30:47;18.60;60.60
1175;DHT22;576;48.418;10.074;2022-12-11T10:33:19;18.70;60.30
1175;DHT22;576;48.418;10.074;2022-12-11T10:35:52;18.80;60.00
1175;DHT22;576;48.418;10.074;2022-12-11T10:38:24;18.90;59.80
1175;DHT22;576;48.418;10.074;2022-12-11T10:40:57;19.00;59.70
1175;DHT22;576;48.418;10.074;2022-12-11T10:43:35;19.00;59.70
1175;DHT22;576;48.418;10.074;2022-12-11T10:46:04;19.00;59.70
1175;DHT22;576;48.418;10.074;2022-12-11T10:48:33;19.00;59.60
1175;DHT22;576;48.418;10.074;2022-12-11T10:51:04;19.00;59.60
1175;DHT22;576;48.418;10.074;2022-12-11T10:53:33;19.00;59.60
1175;DHT22;576;48.418;10.074;2022-12-11T10:56:01;19.00;59.60
1175;DHT22;576;48.418;10.074;2022-12-11T10:58:31;19.00;59.60
1175;DHT22;576;48.418;10.074;2022-12-11T11:01:12;19.00;59.70
1175;DHT22;576;48.418;10.074;2022-12-11T11:03:52;19.00;59.60
1175;DHT22;576;48.418;10.074;2022-12-11T11:06:22;19.00;59.60
1175;DHT22;576;48.418;10.074;2022-12-11T11:08:52;19.00;59.50
1175;DHT22;576;48.418;10.074;2022-12-11T11:11:26;19.00;59.40
1175;DHT22;576;48.418;10.074;2022-12-11T11:14:13;19.00;59.40
1175;DHT22;576;48.418;10.074;2022-12-11T11:16:45;19.00;59.30
1175;DHT22;576;48.418;10.074;2022-12-11T11:19:18;19.00;59.20
1175;DHT22;576;48.418;10.074;2022-12-11T11:21:50;19.00;59.20
1175;DHT22;576;48.418;10.074;2022-12-11T11:24:25;19.10;59.20
1175;DHT22;576;48.418;10.074;2022-12-11T11:26:54;19.10;59.20
1175;DHT22;576;48.418;10.074;2022-12-11T11:29:40;19.10;59.20
1175;DHT22;576;48.418;10.074;2022-12-11T11:32:18;19.20;59.20
1175;DHT22;576;48.418;10.074;2022-12-11T11:34:47;19.20;59.00
1175;DHT22;576;48.418;10.074;2022-12-11T11:37:23;19.20;59.00
1175;DHT22;576;48.418;10.074;2022-12-11T11:39:55;19.20;58.90
1175;DHT22;576;48.418;10.074;2022-12-11T11:42:32;19.20;58.80
1175;DHT22;576;48.418;10.074;2022-12-11T11:45:08;19.20;58.80
1175;DHT22;576;48.418;10.074;2022-12-11T11:47:47;19.20;58.70
1175;DHT22;576;48.418;10.074;2022-12-11T11:50:21;19.20;58.70
1175;DHT22;576;48.418;10.074;2022-12-11T11:52:56;19.20;58.60
1175;DHT22;576;48.418;10.074;2022-12-11T11:55:36;19.20;58.60
1175;DHT22;576;48.418;10.074;2022-12-11T11:58:11;19.20;58.60
1175;DHT22;576;48.418;10.074;2022-12-11T12:00:40;19.30;58.50
1175;DHT22;576;48.418;10.074;2022-12-11T12:03:13;19.30;58.50
1175;DHT22;576;48.418;10.074;2022-12-11T12:05:53;19.30;58.40
1175;DHT22;576;48.418;10.074;2022-12-11T12:08:36;19.30;58.20
1175;DHT22;576;48.418;10.074;2022-12-11T12:11:12;19.40;58.10
1175;DHT22;576;48.418;10.074;2022-12-11T12:13:50;19.40;58.10
1175;DHT22;576;48.418;10.074;2022-12-11T12:16:31;19.40;58.00
1175;DHT22;576;48.418;10.074;2022-12-11T12:19:42;19.40;58.00
1175;DHT22;576;48.418;10.074;2022-12-11T12:22:24;19.30;58.10
1175;DHT22;576;48.418;10.074;2022-12-11T12:25:02;19.30;58.20
1175;DHT22;576;48.418;10.074;2022-12-11T12:27:43;19.30;58.20
1175;DHT22;576;48.418;10.074;2022-12-11T12:30:20;19.30;58.30
1175;DHT22;576;48.418;10.074;2022-12-11T12:33:00;19.30;58.30
1175;DHT22;576;48.418;10.074;2022-12-11T12:35:35;19.20;58.40
1175;DHT22;576;48.418;10.074;2022-12-11T12:38:09;19.20;58.40
1175;DHT22;576;48.418;10.074;2022-12-11T12:40:49;19.20;58.50
1175;DHT22;576;48.418;10.074;2022-12-11T12:43:55;19.20;58.60
1175;DHT22;576;48.418;10.074;2022-12-11T12:46:35;19.10;58.70
1175;DHT22;576;48.418;10.074;2022-12-11T12:49:09;19.10;58.70
1175;DHT22;576;48.418;10.074;2022-12-11T12:51:41;19.10;58.80
1175;DHT22;576;48.418;10.074;2022-12-11T12:54:14;19.00;58.80
1175;DHT22;576;48.418;10.074;2022-12-11T12:56:45;19.00;58.80
1175;DHT22;576;48.418;10.074;2022-12-11T12:59:22;19.00;58.80
1175;DHT22;576;48.418;10.074;2022-12-11T13:01:54;19.00;58.90
1175;DHT22;576;48.418;10.074;2022-12-11T13:04:37;18.90;58.90
1175;DHT22;576;48.418;10.074;2022-12-11T13:07:26;18.90;59.00
1175;DHT22;576;48.418;10.074;2022-12-11T13:10:02;18.90;59.10
1175;DHT22;576;48.418;10.074;2022-12-11T13:12:38;18.90;59.10
1175;DHT22;576;48.418;10.074;2022-12-11T13:18:32;18.90;59.40
1175;DHT22;576;48.418;10.074;2022-12-11T13:21:01;18.80;59.30
1175;DHT22;576;48.418;10.074;2022-12-11T13:23:32;18.80;59.40
1175;DHT22;576;48.418;10.074;2022-12-11T13:26:02;18.80;59.30
1175;DHT22;576;48.418;10.074;2022-12-11T13:28:45;18.80;59.20
1175;DHT22;576;48.418;10.074;2022-12-11T13:31:29;18.80;59.10
1175;DHT22;576;48.418;10.074;2022-12-11T13:34:07;18.80;59.30
1175;DHT22;576;48.418;10.074;2022-12-11T13:36:45;18.80;59.40
1175;DHT22;576;48.418;10.074;2022-12-11T13:39:18;18.80;59.50
1175;DHT22;576;48.418;10.074;2022-12-11T13:41:50;18.80;59.60
1175;DHT22;576;48.418;10.074;2022-12-11T13:44:23;18.90;59.60
1175;DHT22;576;48.418;10.074;2022-12-11T13:46:54;18.90;59.60
1175;DHT22;576;48.418;10.074;2022-12-11T13:49:25;18.90;59.70
1175;DHT22;576;48.418;10.074;2022-12-11T13:51:56;18.90;59.80
1175;DHT22;576;48.418;10.074;2022-12-11T13:54:27;18.90;59.90
1175;DHT22;576;48.418;10.074;2022-12-11T13:57:01;18.90;59.90
1175;DHT22;576;48.418;10.074;2022-12-11T13:59:32;18.90;60.00
1175;DHT22;576;48.418;10.074;2022-12-11T14:02:08;18.90;60.00
1175;DHT22;576;48.418;10.074;2022-12-11T14:04:38;18.90;60.00
1175;DHT22;576;48.418;10.074;2022-12-11T14:07:07;18.90;60.00
1175;DHT22;576;48.418;10.074;2022-12-11T14:09:42;18.90;59.90
1175;DHT22;576;48.418;10.074;2022-12-11T14:12:15;18.90;59.90
1175;DHT22;576;48.418;10.074;2022-12-11T14:14:47;18.90;59.90
1175;DHT22;576;48.418;10.074;2022-12-11T14:17:23;18.90;59.80
1175;DHT22;576;48.418;10.074;2022-12-11T14:19:54;18.90;59.80
1175;DHT22;576;48.418;10.074;2022-12-11T14:22:25;18.90;59.70
1175;DHT22;576;48.418;10.074;2022-12-11T14:24:57;19.00;59.60
1175;DHT22;576;48.418;10.074;2022-12-11T14:27:26;19.00;59.70
1175;DHT22;576;48.418;10.074;2022-12-11T14:29:54;19.00;59.70
1175;DHT22;576;48.418;10.074;2022-12-11T14:32:29;19.00;59.70
1175;DHT22;576;48.418;10.074;2022-12-11T14:35:02;19.00;59.80
1175;DHT22;576;48.418;10.074;2022-12-11T14:37:33;19.00;59.80
1175;DHT22;576;48.418;10.074;2022-12-11T14:40:07;19.00;59.80
1175;DHT22;576;48.418;10.074;2022-12-11T14:42:40;19.00;59.70
1175;DHT22;576;48.418;10.074;2022-12-11T14:45:18;19.00;59.70
1175;DHT22;576;48.418;10.074;2022-12-11T14:47:47;19.00;59.60
1175;DHT22;576;48.418;10.074;2022-12-11T14:50:20;19.00;59.60
1175;DHT22;576;48.418;10.074;2022-12-11T14:52:52;19.00;59.60
1175;DHT22;576;48.418;10.074;2022-12-11T14:55:25;19.00;59.60
1175;DHT22;576;48.418;10.074;2022-12-11T14:57:56;19.00;59.60
1175;DHT22;576;48.418;10.074;2022-12-11T15:00:28;18.90;59.70
1175;DHT22;576;48.418;10.074;2022-12-11T15:03:00;18.90;59.80
1175;DHT22;576;48.418;10.074;2022-12-11T15:05:29;18.90;59.80
1175;DHT22;576;48.418;10.074;2022-12-11T15:08:18;18.90;59.90
1175;DHT22;576;48.418;10.074;2022-12-11T15:11:01;18.80;60.00
1175;DHT22;576;48.418;10.074;2022-12-11T15:13:31;18.80;60.00
1175;DHT22;576;48.418;10.074;2022-12-11T15:16:00;18.80;60.00
1175;DHT22;576;48.418;10.074;2022-12-11T15:18:32;18.80;59.90
1175;DHT22;576;48.418;10.074;2022-12-11T15:21:02;18.70;59.90
1175;DHT22;576;48.418;10.074;2022-12-11T15:23:36;18.70;59.90
1175;DHT22;576;48.418;10.074;2022-12-11T15:26:07;18.70;60.00
1175;DHT22;576;48.418;10.074;2022-12-11T15:28:37;18.70;60.10
1175;DHT22;576;48.418;10.074;2022-12-11T15:31:20;18.70;60.20
1175;DHT22;576;48.418;10.074;2022-12-11T15:33:49;18.70;60.40
1175;DHT22;576;48.418;10.074;2022-12-11T15:36:24;18.70;60.50
1175;DHT22;576;48.418;10.074;2022-12-11T15:38:52;18.70;60.50
1175;DHT22;576;48.418;10.074;2022-12-11T15:41:22;18.60;60.50
1175;DHT22;576;48.418;10.074;2022-12-11T15:43:53;18.60;60.50
1175;DHT22;576;48.418;10.074;2022-12-11T15:46:25;18.60;60.50
1175;DHT22;576;48.418;10.074;2022-12-11T15:48:55;18.60;60.50
1175;DHT22;576;48.418;10.074;2022-12-11T15:51:24;18.60;60.30
1175;DHT22;576;48.418;10.074;2022-12-11T15:53:53;18.60;60.20
1175;DHT22;576;48.418;10.074;2022-12-11T15:56:23;18.60;60.30
1175;DHT22;576;48.418;10.074;2022-12-11T15:58:51;18.60;60.40
1175;DHT22;576;48.418;10.074;2022-12-11T16:01:19;18.60;60.20
1175;DHT22;576;48.418;10.074;2022-12-11T16:03:47;18.60;60.30
1175;DHT22;576;48.418;10.074;2022-12-11T16:06:17;18.60;60.20
1175;DHT22;576;48.418;10.074;2022-12-11T16:08:45;18.50;60.10
1175;DHT22;576;48.418;10.074;2022-12-11T16:11:13;18.50;60.10
1175;DHT22;576;48.418;10.074;2022-12-11T16:13:44;18.60;60.30
1175;DHT22;576;48.418;10.074;2022-12-11T16:16:12;18.50;60.40
1175;DHT22;576;48.418;10.074;2022-12-11T16:18:40;18.60;60.50
1175;DHT22;576;48.418;10.074;2022-12-11T16:21:08;18.60;60.70
1175;DHT22;576;48.418;10.074;2022-12-11T16:23:40;18.60;60.90
1175;DHT22;576;48.418;10.074;2022-12-11T16:26:08;18.60;61.10
1175;DHT22;576;48.418;10.074;2022-12-11T16:28:36;18.60;61.10
1175;DHT22;576;48.418;10.074;2022-12-11T16:31:10;18.60;61.10
1175;DHT22;576;48.418;10.074;2022-12-11T16:33:39;18.60;61.20
1175;DHT22;576;48.418;10.074;2022-12-11T16:36:14;18.60;61.10